Time;durP1;ratioP1;P1;durP2;ratioP2;P2;SDS_P1;SDS_P2;PMS_P1;PMS_P2;Temp;Humidity;BMP_temperature;BMP_pressure;BME280_temperature;BME280_humidity;BME280_pressure;Samples;Min_cycle;Max_cycle;Signal;HPM_P1;HPM_P2
2022/07/18 00:01:41;;;;;;;6.97;3.80;;;19.20;77.00;;;;;;5071348;28;20452;-46
2022/07/18 00:04:09;;;;;;;6.77;3.80;;;19.20;76.50;;;;;;5071703;28;20445;-47
2022/07/18 00:06:36;;;;;;;7.70;4.20;;;19.20;75.90;;;;;;5071637;28;20498;-46
2022/07/18 00:09:03;;;;;;;11.13;4.50;;;18.80;75.00;;;;;;5071294;28;20461;-45
2022/07/18 00:11:29;;;;;;;5.00;3.53;;;19.20;75.20;;;;;;5071697;28;20473;-46
2022/07/18 00:13:56;;;;;;;6.60;3.73;;;19.10;74.70;;;;;;5071370;28;20437;-46
2022/07/18 00:16:23;;;;;;;6.33;4.70;;;19.30;74.70;;;;;;5071246;28;20460;-47
2022/07/18 00:18:50;;;;;;;5.30;4.37;;;19.20;74.20;;;;;;5069473;28;20544;-47
2022/07/18 00:21:18;;;;;;;6.87;4.20;;;19.50;74.30;;;;;;5071343;28;20460;-46
2022/07/18 00:23:45;;;;;;;4.77;3.20;;;19.40;74.00;;;;;;5071132;28;20958;-47
2022/07/18 00:26:12;;;;;;;7.03;3.37;;;19.00;73.30;;;;;;5071097;28;20437;-47
2022/07/18 00:28:38;;;;;;;7.00;3.20;;;19.40;73.60;;;;;;5070689;28;20461;-45
2022/07/18 00:31:05;;;;;;;5.77;3.93;;;19.40;73.30;;;;;;5070962;28;20477;-46
2022/07/18 00:33:32;;;;;;;5.33;3.60;;;19.40;73.30;;;;;;5071188;28;20494;-46
2022/07/18 00:35:58;;;;;;;5.40;3.00;;;19.40;73.30;;;;;;5071030;28;20898;-45
2022/07/18 00:38:26;;;;;;;7.53;3.83;;;19.40;72.80;;;;;;5070573;28;20456;-47
2022/07/18 00:40:53;;;;;;;4.90;2.80;;;19.40;72.80;;;;;;5070039;28;20511;-46
2022/07/18 00:43:20;;;;;;;9.50;2.77;;;19.40;72.80;;;;;;5071013;28;20807;-46
2022/07/18 00:45:47;;;;;;;6.87;2.63;;;19.60;72.90;;;;;;5071014;28;21012;-47
2022/07/18 00:48:14;;;;;;;6.23;2.73;;;19.20;72.50;;;;;;5070547;28;20428;-46
2022/07/18 00:50:41;;;;;;;4.63;2.80;;;19.40;72.60;;;;;;5076253;22;20490;-50
2022/07/18 00:53:10;;;;;;;5.60;2.80;;;19.50;72.80;;;;;;5051539;28;20437;-50
2022/07/18 00:55:40;;;;;;;4.70;2.30;;;19.40;72.70;;;;;;5051549;28;20469;-50
2022/07/18 00:58:08;;;;;;;6.17;2.77;;;19.40;72.70;;;;;;5051503;28;20451;-49
2022/07/18 01:03:20;;;;;;;5.10;2.33;;;19.40;72.80;;;;;;5051376;28;20515;-50
2022/07/18 01:05:47;;;;;;;6.00;2.40;;;19.40;73.00;;;;;;5051428;28;20430;-51
2022/07/18 01:08:13;;;;;;;4.60;2.50;;;19.30;72.90;;;;;;5051333;28;20930;-51
2022/07/18 01:10:42;;;;;;;4.80;2.47;;;19.30;73.10;;;;;;5050801;28;20496;-51
2022/07/18 01:13:08;;;;;;;5.30;2.50;;;19.30;73.10;;;;;;5051372;28;20442;-51
2022/07/18 01:15:36;;;;;;;5.60;2.80;;;19.10;73.10;;;;;;5051303;28;20437;-50
2022/07/18 01:18:03;;;;;;;9.63;2.90;;;19.30;73.50;;;;;;5051216;28;20442;-51
2022/07/18 01:20:31;;;;;;;4.93;2.80;;;19.40;73.70;;;;;;5050899;28;20454;-51
2022/07/18 01:22:59;;;;;;;4.80;2.77;;;19.20;73.60;;;;;;5051127;28;20938;-50
2022/07/18 01:25:26;;;;;;;14.63;2.70;;;19.10;73.60;;;;;;5051128;28;20480;-50
2022/07/18 01:27:53;;;;;;;6.03;2.87;;;19.30;74.00;;;;;;5051255;28;20437;-51
2022/07/18 01:30:20;;;;;;;4.40;2.80;;;19.10;73.90;;;;;;5050744;28;21084;-51
2022/07/18 01:32:47;;;;;;;6.93;3.27;;;18.70;73.80;;;;;;5051091;28;20482;-50
2022/07/18 01:35:14;;;;;;;6.80;3.07;;;19.20;74.60;;;;;;5051292;28;20431;-50
2022/07/18 01:37:41;;;;;;;5.40;2.60;;;19.10;75.40;;;;;;5051129;28;20444;-50
2022/07/18 01:40:09;;;;;;;7.30;2.47;;;19.10;74.90;;;;;;5050732;28;20813;-50
2022/07/18 01:42:36;;;;;;;5.00;2.73;;;19.00;75.00;;;;;;5051118;28;20797;-50
2022/07/18 01:45:03;;;;;;;5.87;3.10;;;19.10;75.40;;;;;;5051019;28;20570;-50
2022/07/18 01:47:30;;;;;;;4.60;2.87;;;18.90;75.50;;;;;;5051069;28;20441;-50
2022/07/18 01:49:56;;;;;;;5.87;2.87;;;18.80;75.60;;;;;;5050419;28;20999;-51
2022/07/18 01:52:23;;;;;;;7.20;3.10;;;18.80;75.90;;;;;;5053311;28;20481;-51
2022/07/18 01:54:51;;;;;;;5.03;3.07;;;18.80;76.10;;;;;;5054994;28;20442;-50
2022/07/18 01:57:17;;;;;;;5.93;3.10;;;18.90;76.50;;;;;;5054784;28;20433;-51
2022/07/18 01:59:44;;;;;;;5.33;3.70;;;18.70;76.50;;;;;;5054134;28;20449;-51
2022/07/18 02:02:10;;;;;;;3.57;2.23;;;18.60;76.60;;;;;;5054676;28;20808;-50
2022/07/18 02:07:22;;;;;;;5.97;2.83;;;18.60;77.10;;;;;;5053230;28;20534;-50
2022/07/18 02:09:48;;;;;;;5.80;3.03;;;18.50;77.30;;;;;;5053964;28;20471;-49
2022/07/18 02:12:16;;;;;;;5.43;2.30;;;18.60;77.50;;;;;;5054358;28;20472;-51
2022/07/18 02:14:43;;;;;;;6.97;2.57;;;18.40;77.50;;;;;;5054595;28;20545;-51
2022/07/18 02:17:10;;;;;;;7.03;3.10;;;18.30;77.50;;;;;;5054384;28;20437;-51
2022/07/18 02:19:36;;;;;;;6.03;2.97;;;18.30;77.80;;;;;;5053810;28;20466;-50
2022/07/18 02:22:03;;;;;;;6.83;2.67;;;18.30;78.00;;;;;;5054316;28;20428;-51
2022/07/18 02:24:30;;;;;;;5.77;2.63;;;18.10;77.90;;;;;;5054197;28;20439;-51
2022/07/18 02:26:57;;;;;;;6.97;2.97;;;18.20;78.20;;;;;;5054223;28;20919;-52
2022/07/18 02:29:24;;;;;;;5.57;2.17;;;18.30;78.60;;;;;;5053737;28;20452;-50
2022/07/18 02:31:51;;;;;;;5.93;2.50;;;18.20;78.50;;;;;;5053981;28;20488;-51
2022/07/18 02:34:18;;;;;;;4.67;2.70;;;18.10;78.60;;;;;;5054173;28;20433;-50
2022/07/18 02:36:44;;;;;;;7.17;2.63;;;18.30;79.10;;;;;;5054222;28;20441;-50
2022/07/18 02:39:11;;;;;;;6.00;2.43;;;18.10;79.10;;;;;;5053562;28;20459;-51
2022/07/18 02:41:38;;;;;;;6.37;2.93;;;18.00;79.20;;;;;;5053950;28;20441;-50
2022/07/18 02:44:05;;;;;;;3.70;2.00;;;18.00;79.30;;;;;;5053960;28;20439;-50
2022/07/18 02:46:33;;;;;;;6.03;2.80;;;17.90;79.30;;;;;;5053798;28;20432;-49
2022/07/18 02:49:00;;;;;;;8.63;3.03;;;18.20;79.80;;;;;;5053159;28;21059;-50
2022/07/18 02:51:26;;;;;;;5.13;2.77;;;17.90;79.70;;;;;;5053795;28;20479;-50
2022/07/18 02:53:53;;;;;;;5.37;2.90;;;17.50;79.50;;;;;;5053578;28;20436;-51
2022/07/18 02:56:20;;;;;;;5.60;2.60;;;17.80;80.10;;;;;;5053659;28;20442;-51
2022/07/18 02:58:47;;;;;;;5.03;2.70;;;17.50;79.90;;;;;;5053247;28;20439;-51
2022/07/18 03:01:13;;;;;;;8.90;2.90;;;17.80;80.50;;;;;;5053489;28;20437;-50
2022/07/18 03:03:41;;;;;;;6.00;2.83;;;17.70;80.60;;;;;;5052882;28;20941;-50
2022/07/18 03:06:08;;;;;;;5.33;3.40;;;17.40;80.50;;;;;;5053243;28;20439;-49
2022/07/18 03:08:34;;;;;;;7.90;3.33;;;17.80;81.40;;;;;;5052950;28;20427;-51
2022/07/18 03:11:01;;;;;;;6.20;2.80;;;17.60;81.10;;;;;;5053339;28;20438;-51
2022/07/18 03:13:27;;;;;;;8.37;2.60;;;17.60;81.50;;;;;;5053396;28;20448;-51
2022/07/18 03:15:54;;;;;;;5.73;3.07;;;17.40;81.30;;;;;;5053408;28;20818;-49
2022/07/18 03:18:22;;;;;;;6.70;3.00;;;17.60;81.70;;;;;;5053100;28;20440;-49
2022/07/18 03:20:50;;;;;;;5.50;3.10;;;17.50;81.70;;;;;;5052894;28;20460;-50
2022/07/18 03:23:16;;;;;;;6.07;2.97;;;17.50;81.90;;;;;;5051762;28;20456;-51
2022/07/18 03:25:43;;;;;;;8.80;2.90;;;17.50;82.10;;;;;;5053016;28;20440;-51
2022/07/18 03:28:09;;;;;;;6.83;3.23;;;17.80;82.70;;;;;;5053041;28;20426;-50
2022/07/18 03:30:36;;;;;;;10.63;3.13;;;17.50;82.60;;;;;;5052574;28;20458;-50
2022/07/18 03:33:02;;;;;;;6.00;2.90;;;17.50;82.70;;;;;;5052901;28;20491;-50
2022/07/18 03:35:29;;;;;;;4.50;2.60;;;17.50;82.90;;;;;;5052797;28;20427;-51
2022/07/18 03:37:57;;;;;;;8.30;3.83;;;17.50;83.00;;;;;;5052792;28;20432;-51
2022/07/18 03:40:23;;;;;;;4.97;3.33;;;17.50;83.10;;;;;;5052279;28;20462;-51
2022/07/18 03:42:50;;;;;;;14.47;3.87;;;17.50;83.20;;;;;;5052573;28;20444;-50
2022/07/18 03:45:17;;;;;;;6.53;3.67;;;18.00;83.90;;;;;;5052362;28;20446;-51
2022/07/18 03:47:43;;;;;;;11.33;4.10;;;17.50;84.20;;;;;;5052587;28;20878;-51
2022/07/18 03:50:10;;;;;;;6.63;3.10;;;17.50;83.70;;;;;;5052038;28;20467;-51
2022/07/18 03:52:37;;;;;;;4.60;3.10;;;17.40;83.70;;;;;;5051069;28;21025;-51
2022/07/18 03:55:06;;;;;;;6.73;3.13;;;17.40;83.90;;;;;;5052680;28;20446;-51
2022/07/18 03:57:32;;;;;;;7.63;3.47;;;17.50;84.10;;;;;;5052469;28;20436;-52
2022/07/18 03:59:59;;;;;;;7.33;3.03;;;18.00;84.90;;;;;;5052058;28;20840;-50
2022/07/18 04:02:26;;;;;;;7.93;3.17;;;17.50;84.40;;;;;;5052272;28;20432;-51
2022/07/18 04:04:52;;;;;;;7.37;4.10;;;17.50;84.50;;;;;;5052642;28;20431;-51
2022/07/18 04:07:19;;;;;;;12.93;4.30;;;17.60;84.80;;;;;;5052144;28;20446;-50
2022/07/18 04:09:45;;;;;;;13.70;4.67;;;17.70;84.80;;;;;;5051718;28;20505;-50
2022/07/18 04:12:13;;;;;;;8.27;4.00;;;17.70;84.80;;;;;;5051843;28;20502;-51
2022/07/18 04:14:40;;;;;;;8.80;3.43;;;17.80;84.90;;;;;;5051617;28;20434;-50
2022/07/18 04:17:06;;;;;;;12.67;3.70;;;18.00;85.00;;;;;;5051899;28;20912;-50
2022/07/18 04:19:34;;;;;;;7.90;4.30;;;18.00;84.80;;;;;;5051440;28;20461;-51
2022/07/18 04:22:00;;;;;;;12.50;4.50;;;18.10;84.70;;;;;;5051848;28;20934;-50
2022/07/18 04:24:27;;;;;;;13.73;4.20;;;18.20;84.60;;;;;;5051918;28;20435;-50
2022/07/18 04:26:53;;;;;;;16.73;3.57;;;18.40;85.20;;;;;;5050463;28;20456;-51
2022/07/18 04:29:21;;;;;;;8.50;3.87;;;18.50;84.20;;;;;;5051334;28;20459;-51
2022/07/18 04:31:48;;;;;;;16.10;4.80;;;18.70;84.20;;;;;;5051656;28;20586;-49
2022/07/18 04:34:15;;;;;;;13.60;4.20;;;18.70;83.80;;;;;;5051415;28;20442;-49
2022/07/18 04:36:41;;;;;;;11.60;3.90;;;19.10;83.80;;;;;;5051646;28;20533;-50
2022/07/18 04:39:08;;;;;;;6.00;3.70;;;19.20;83.60;;;;;;5051233;28;20476;-48
2022/07/18 04:41:35;;;;;;;6.20;3.50;;;18.90;82.90;;;;;;5051701;28;20442;-50
2022/07/18 04:44:02;;;;;;;6.53;3.17;;;19.00;82.50;;;;;;5051563;28;20437;-49
2022/07/18 04:46:30;;;;;;;7.80;4.00;;;19.20;82.00;;;;;;5051249;28;20445;-50
2022/07/18 04:48:56;;;;;;;9.60;4.10;;;19.00;81.30;;;;;;5050789;28;20468;-49
2022/07/18 04:51:23;;;;;;;10.20;3.87;;;19.20;81.20;;;;;;5050258;28;20550;-50
2022/07/18 04:53:49;;;;;;;10.57;3.83;;;19.40;81.00;;;;;;5051370;28;20484;-50
2022/07/18 04:56:16;;;;;;;11.13;3.37;;;19.40;80.60;;;;;;5051920;28;20446;-50
2022/07/18 04:58:43;;;;;;;8.00;4.30;;;19.30;80.00;;;;;;5051293;28;20872;-50
2022/07/18 05:01:09;;;;;;;9.10;3.80;;;19.60;80.00;;;;;;5051488;28;20438;-50
2022/07/18 05:03:37;;;;;;;10.67;3.70;;;19.70;79.70;;;;;;5051572;28;20505;-50
2022/07/18 05:06:04;;;;;;;10.17;6.70;;;19.70;79.60;;;;;;5051556;28;20437;-50
2022/07/18 05:08:31;;;;;;;12.27;3.97;;;19.90;79.60;;;;;;5050924;28;20456;-48
2022/07/18 05:10:57;;;;;;;7.00;4.10;;;19.90;79.40;;;;;;5050548;28;20454;-50
2022/07/18 05:13:24;;;;;;;7.40;3.60;;;20.00;79.10;;;;;;5051182;28;20528;-51
2022/07/18 05:15:51;;;;;;;10.47;4.10;;;20.10;78.60;;;;;;5051812;28;20431;-51
2022/07/18 05:18:18;;;;;;;4.63;3.10;;;20.10;78.20;;;;;;5050101;28;20549;-51
2022/07/18 05:20:46;;;;;;;5.43;3.73;;;20.10;77.80;;;;;;5051391;28;20455;-50
2022/07/18 05:23:15;;;;;;;10.40;3.80;;;20.20;77.50;;;;;;5051518;28;20471;-50
2022/07/18 05:25:42;;;;;;;5.83;2.80;;;20.40;77.20;;;;;;5051302;28;20430;-51
2022/07/18 05:28:09;;;;;;;6.40;3.67;;;20.40;76.80;;;;;;5054578;28;20434;-51
2022/07/18 05:30:36;;;;;;;11.43;4.37;;;20.40;76.50;;;;;;5054851;28;20461;-51
2022/07/18 05:33:02;;;;;;;6.20;3.33;;;20.60;76.30;;;;;;5055389;28;20484;-51
2022/07/18 05:35:29;;;;;;;7.67;3.93;;;20.80;76.10;;;;;;5054998;28;20555;-52
2022/07/18 05:37:57;;;;;;;3.80;2.53;;;20.50;75.20;;;;;;5053695;28;20459;-50
2022/07/18 05:40:23;;;;;;;10.27;2.83;;;20.80;75.20;;;;;;5055051;28;20466;-50
2022/07/18 05:42:50;;;;;;;9.00;3.57;;;21.00;75.10;;;;;;5054998;28;20427;-51
2022/07/18 05:45:17;;;;;;;5.33;3.50;;;21.10;74.90;;;;;;5054943;28;20492;-51
2022/07/18 05:47:44;;;;;;;7.47;3.33;;;21.20;74.70;;;;;;5055250;28;20438;-50
2022/07/18 05:50:10;;;;;;;11.40;4.20;;;21.30;74.50;;;;;;5054596;28;20973;-50
2022/07/18 05:52:37;;;;;;;5.03;3.27;;;21.20;74.10;;;;;;5054308;28;20478;-51
2022/07/18 05:55:07;;;;;;;4.30;2.57;;;21.50;74.10;;;;;;5055004;28;20434;-50
2022/07/18 05:57:34;;;;;;;8.20;3.30;;;21.30;73.40;;;;;;5055217;28;20438;-50
2022/07/18 06:00:01;;;;;;;5.93;3.30;;;21.70;73.60;;;;;;5054268;28;20455;-51
2022/07/18 06:02:27;;;;;;;5.63;3.30;;;21.70;73.40;;;;;;5054542;28;20816;-51
2022/07/18 06:04:54;;;;;;;6.67;3.00;;;21.80;73.40;;;;;;5054361;28;20529;-50
2022/07/18 06:07:20;;;;;;;7.40;3.47;;;21.80;73.00;;;;;;5055161;28;20459;-51
2022/07/18 06:09:47;;;;;;;7.23;3.13;;;21.60;72.20;;;;;;5053783;28;20641;-51
2022/07/18 06:12:16;;;;;;;8.73;3.63;;;22.10;72.00;;;;;;5053948;28;20981;-50
2022/07/18 06:14:43;;;;;;;5.93;3.20;;;22.30;71.40;;;;;;5054245;28;20494;-51
2022/07/18 06:17:09;;;;;;;5.43;2.50;;;22.10;70.70;;;;;;5053850;28;20872;-50
2022/07/18 06:19:36;;;;;;;7.70;3.00;;;22.50;70.80;;;;;;5053946;28;20476;-52
2022/07/18 06:22:03;;;;;;;10.60;3.33;;;22.60;70.40;;;;;;5053951;28;20441;-49
2022/07/18 06:24:29;;;;;;;7.50;2.50;;;22.70;70.30;;;;;;5053842;28;20457;-52
2022/07/18 06:26:56;;;;;;;6.33;2.57;;;22.70;70.20;;;;;;5053783;28;20446;-50
2022/07/18 06:29:24;;;;;;;7.23;2.60;;;22.80;70.00;;;;;;5054314;28;20493;-50
2022/07/18 06:31:50;;;;;;;10.40;3.80;;;23.10;70.20;;;;;;5054187;28;20439;-51
2022/07/18 06:34:17;;;;;;;5.90;2.77;;;23.00;69.70;;;;;;5053811;28;20482;-49
2022/07/18 06:36:44;;;;;;;5.53;2.70;;;23.00;69.30;;;;;;5053486;28;20521;-51
2022/07/18 06:39:11;;;;;;;8.30;3.20;;;23.50;69.60;;;;;;5051887;28;20534;-51
2022/07/18 06:41:39;;;;;;;5.00;3.40;;;23.10;68.70;;;;;;5053583;28;20917;-51
2022/07/18 06:44:13;;;;;;;17.03;5.07;;;23.10;68.70;;;;;;5052060;28;20464;-51
2022/07/18 06:46:41;;;;;;;5.37;2.53;;;23.30;69.00;;;;;;5053560;28;20484;-50
2022/07/18 06:49:08;;;;;;;6.23;2.57;;;23.30;68.70;;;;;;5077667;22;20469;-48
2022/07/18 06:51:34;;;;;;;3.10;2.10;;;23.30;68.40;;;;;;5032476;28;20474;-48
2022/07/18 06:54:01;;;;;;;4.97;3.03;;;23.30;68.20;;;;;;5032337;28;20482;-48
2022/07/18 06:56:28;;;;;;;4.63;3.00;;;23.30;68.00;;;;;;5032560;28;20433;-48
2022/07/18 06:58:55;;;;;;;6.87;2.77;;;23.30;68.00;;;;;;5031814;28;20430;-48
2022/07/18 07:01:22;;;;;;;7.27;2.93;;;23.40;68.30;;;;;;5032414;28;21109;-49
2022/07/18 07:03:50;;;;;;;8.47;2.70;;;23.40;68.20;;;;;;5032409;28;20960;-50
2022/07/18 07:06:16;;;;;;;8.43;2.80;;;23.30;67.70;;;;;;5032492;28;20440;-48
2022/07/18 07:08:43;;;;;;;5.33;2.40;;;23.40;66.70;;;;;;5032533;28;20442;-50
2022/07/18 07:11:10;;;;;;;3.03;1.93;;;23.40;66.40;;;;;;5032226;28;20459;-49
2022/07/18 07:13:37;;;;;;;6.40;3.33;;;23.40;66.00;;;;;;5014396;28;20469;-48
2022/07/18 07:16:04;;;;;;;5.73;2.43;;;23.50;65.70;;;;;;5031798;28;20529;-49
2022/07/18 07:18:31;;;;;;;8.13;2.87;;;23.50;65.50;;;;;;5031794;28;20450;-48
2022/07/18 07:20:59;;;;;;;6.50;2.50;;;23.50;65.30;;;;;;5031742;28;20819;-49
2022/07/18 07:23:26;;;;;;;4.00;2.10;;;23.50;65.10;;;;;;5031796;28;20532;-49
2022/07/18 07:25:54;;;;;;;5.40;2.50;;;23.50;64.70;;;;;;5032144;28;20429;-49
2022/07/18 07:28:21;;;;;;;7.70;2.20;;;23.50;64.70;;;;;;5031577;28;20502;-50
2022/07/18 07:30:48;;;;;;;5.30;1.93;;;23.60;64.60;;;;;;5031633;28;20513;-48
2022/07/18 07:33:14;;;;;;;4.57;2.10;;;23.50;64.10;;;;;;5031820;28;20482;-48
2022/07/18 07:35:41;;;;;;;5.43;2.17;;;23.50;64.30;;;;;;5032333;28;20437;-48
2022/07/18 07:38:10;;;;;;;2.90;2.13;;;23.60;64.40;;;;;;5031470;28;20455;-48
2022/07/18 07:40:36;;;;;;;5.03;3.90;;;23.60;64.40;;;;;;5031346;28;20502;-48
2022/07/18 07:43:08;;;;;;;4.87;2.00;;;23.60;63.60;;;;;;5031524;28;20432;-48
2022/07/18 07:45:36;;;;;;;4.80;2.17;;;23.60;63.30;;;;;;5031099;28;20444;-48
2022/07/18 07:48:03;;;;;;;5.43;2.23;;;23.70;63.30;;;;;;5031828;28;20751;-50
2022/07/18 07:50:30;;;;;;;7.57;2.27;;;23.70;63.20;;;;;;5030618;28;20486;-48
2022/07/18 07:52:57;;;;;;;4.60;2.13;;;23.70;62.80;;;;;;5031036;28;20486;-48
2022/07/18 07:55:25;;;;;;;6.17;3.23;;;23.80;62.70;;;;;;5031269;28;20434;-48
2022/07/18 07:57:52;;;;;;;4.90;1.77;;;23.90;62.40;;;;;;5031531;28;20451;-48
2022/07/18 08:00:19;;;;;;;3.50;2.43;;;23.80;61.80;;;;;;5030622;28;20462;-49
2022/07/18 08:02:56;;;;;;;6.13;2.10;;;23.80;61.70;;;;;;5031427;28;20432;-49
2022/07/18 08:05:24;;;;;;;5.00;2.10;;;23.90;61.90;;;;;;5031040;28;20438;-48
2022/07/18 08:07:51;;;;;;;4.77;2.10;;;23.90;61.90;;;;;;5031087;28;20533;-48
2022/07/18 08:10:19;;;;;;;4.00;1.90;;;24.00;61.80;;;;;;5013033;28;20496;-50
2022/07/18 08:12:47;;;;;;;7.90;2.20;;;24.10;61.80;;;;;;5031002;28;20443;-49
2022/07/18 08:15:14;;;;;;;7.33;2.43;;;24.30;61.60;;;;;;5030752;28;20444;-48
2022/07/18 08:17:41;;;;;;;3.47;2.13;;;24.30;61.20;;;;;;5030733;28;20440;-49
2022/07/18 08:20:09;;;;;;;5.17;2.87;;;24.60;60.60;;;;;;5030289;28;20459;-47
2022/07/18 08:22:36;;;;;;;4.53;2.50;;;24.70;59.90;;;;;;5030913;28;20431;-49
2022/07/18 08:25:03;;;;;;;4.23;2.30;;;24.70;59.60;;;;;;5030807;28;20430;-48
2022/07/18 08:27:30;;;;;;;7.37;3.30;;;24.90;59.40;;;;;;5031363;28;20515;-48
2022/07/18 08:29:57;;;;;;;5.53;2.50;;;25.00;58.80;;;;;;5030427;28;20447;-47
2022/07/18 08:32:24;;;;;;;5.60;2.53;;;25.20;58.50;;;;;;5030315;28;20439;-48
2022/07/18 08:34:52;;;;;;;4.43;2.33;;;25.30;58.10;;;;;;5029805;28;20995;-48
2022/07/18 08:37:19;;;;;;;6.00;2.90;;;25.40;57.60;;;;;;5012904;28;20468;-48
2022/07/18 08:39:45;;;;;;;9.50;3.40;;;25.40;57.30;;;;;;5030483;28;20463;-49
2022/07/18 08:42:14;;;;;;;4.07;3.10;;;25.40;57.10;;;;;;5030686;28;20436;-48
2022/07/18 08:44:41;;;;;;;4.87;3.07;;;25.50;57.10;;;;;;5030297;28;20458;-48
2022/07/18 08:47:09;;;;;;;5.67;3.57;;;25.50;57.00;;;;;;5030903;28;20485;-48
2022/07/18 08:49:36;;;;;;;5.60;2.93;;;25.50;56.90;;;;;;5030265;28;20873;-48
2022/07/18 08:52:03;;;;;;;3.90;3.13;;;25.40;56.90;;;;;;5030563;28;20495;-48
2022/07/18 08:54:30;;;;;;;6.37;4.13;;;25.30;56.80;;;;;;5030259;28;20471;-48
2022/07/18 08:56:57;;;;;;;4.97;3.13;;;25.20;56.60;;;;;;5030618;28;20935;-49
2022/07/18 08:59:24;;;;;;;7.20;4.50;;;25.10;57.00;;;;;;5030709;28;20456;-49
2022/07/18 09:01:50;;;;;;;9.57;4.10;;;25.10;56.40;;;;;;5029577;28;20760;-48
2022/07/18 09:07:22;;;;;;;5.27;4.10;;;25.10;56.20;;;;;;5108079;27;20948;-48
2022/07/18 09:09:53;;;;;;;11.20;4.87;;;25.10;56.70;;;;;;5107727;28;20463;-49
2022/07/18 09:12:20;;;;;;;7.13;4.50;;;25.10;56.10;;;;;;5108223;28;20428;-49
2022/07/18 09:14:47;;;;;;;6.40;4.70;;;25.20;55.80;;;;;;5108125;28;20941;-49
2022/07/18 09:17:15;;;;;;;5.60;4.20;;;25.40;55.90;;;;;;5108683;28;20424;-50
2022/07/18 09:19:43;;;;;;;5.83;3.43;;;25.20;56.10;;;;;;5105576;22;20517;-44
2022/07/18 09:22:17;;;;;;;8.13;3.90;;;25.20;56.30;;;;;;5049112;28;20435;-44
2022/07/18 09:24:52;;;;;;;7.70;4.60;;;25.30;56.40;;;;;;5049634;28;20516;-46
2022/07/18 09:27:31;;;;;;;4.87;3.10;;;25.30;56.10;;;;;;5048792;28;20433;-46
2022/07/18 09:30:24;;;;;;;5.70;3.47;;;25.40;56.30;;;;;;5046924;28;20469;-45
2022/07/18 09:32:52;;;;;;;7.47;3.00;;;25.50;56.70;;;;;;5048507;28;20445;-45
2022/07/18 09:35:23;;;;;;;5.33;2.83;;;25.50;56.80;;;;;;5048690;28;20438;-45
2022/07/18 09:37:59;;;;;;;6.97;3.10;;;25.60;56.50;;;;;;5048934;28;20449;-46
2022/07/18 09:40:27;;;;;;;5.77;2.73;;;25.70;56.40;;;;;;5048210;28;20469;-45
2022/07/18 09:42:55;;;;;;;7.23;3.13;;;25.80;56.30;;;;;;5048883;28;20469;-46
2022/07/18 09:45:24;;;;;;;4.40;2.80;;;26.00;56.00;;;;;;5048345;28;20477;-45
2022/07/18 09:47:52;;;;;;;7.27;3.00;;;26.20;55.60;;;;;;5048181;28;20431;-45
2022/07/18 09:50:28;;;;;;;7.23;3.03;;;26.30;55.20;;;;;;5048604;28;20462;-46
2022/07/18 09:53:05;;;;;;;8.13;3.40;;;26.50;54.90;;;;;;5048252;28;20837;-44
2022/07/18 09:55:32;;;;;;;5.07;2.87;;;26.50;54.70;;;;;;5048663;28;20435;-44
2022/07/18 09:58:01;;;;;;;8.17;3.47;;;26.60;54.70;;;;;;5046510;28;20443;-46
2022/07/18 10:00:30;;;;;;;4.53;3.23;;;26.60;54.40;;;;;;5047701;28;20466;-45
2022/07/18 10:02:59;;;;;;;5.60;3.27;;;26.60;53.70;;;;;;5048239;28;20431;-45
2022/07/18 10:05:27;;;;;;;5.73;3.40;;;26.60;53.70;;;;;;5048303;28;20572;-44
2022/07/18 10:07:54;;;;;;;7.50;3.27;;;26.60;53.60;;;;;;5047711;28;20459;-44
2022/07/18 10:10:24;;;;;;;6.73;3.50;;;26.60;53.40;;;;;;5060464;28;20958;-45
2022/07/18 10:12:54;;;;;;;6.93;4.33;;;26.70;53.40;;;;;;5068322;28;20571;-45
2022/07/18 10:15:22;;;;;;;5.57;3.50;;;26.70;53.40;;;;;;5068474;28;20426;-44
2022/07/18 10:17:49;;;;;;;8.10;3.47;;;26.90;53.50;;;;;;5058518;28;20492;-45
2022/07/18 10:20:16;;;;;;;5.20;3.70;;;26.90;53.30;;;;;;5054487;28;20489;-44
2022/07/18 10:22:44;;;;;;;4.97;2.80;;;27.00;53.30;;;;;;5055305;28;20974;-43
2022/07/18 10:25:11;;;;;;;6.27;2.93;;;27.10;52.70;;;;;;5054783;28;20430;-46
2022/07/18 10:27:51;;;;;;;7.17;4.03;;;27.10;52.60;;;;;;5054734;28;20443;-44
2022/07/18 10:30:19;;;;;;;7.87;3.50;;;27.20;52.60;;;;;;5053283;28;20458;-46
2022/07/18 10:32:46;;;;;;;6.63;3.83;;;27.20;52.50;;;;;;5054332;28;20434;-45
2022/07/18 10:35:16;;;;;;;7.10;3.70;;;27.40;52.00;;;;;;5054159;28;20431;-46
2022/07/18 10:37:43;;;;;;;7.37;4.23;;;27.60;52.00;;;;;;5041053;28;20533;-47
2022/07/18 10:40:26;;;;;;;4.10;3.47;;;27.70;51.50;;;;;;5034029;28;20531;-46
2022/07/18 10:43:31;;;;;;;6.93;3.57;;;27.90;51.00;;;;;;5032737;28;20474;-46
2022/07/18 10:45:59;;;;;;;6.17;3.83;;;28.00;50.40;;;;;;5034139;28;20475;-44
2022/07/18 10:48:57;;;;;;;4.97;3.80;;;28.00;50.50;;;;;;5034199;28;20441;-46
2022/07/18 10:51:31;;;;;;;4.70;3.40;;;28.10;50.20;;;;;;5031118;28;20800;-44
2022/07/18 10:54:04;;;;;;;8.53;3.47;;;28.10;50.00;;;;;;5034231;28;20446;-46
2022/07/18 10:57:11;;;;;;;10.23;3.50;;;28.20;50.00;;;;;;5034400;28;20509;-44
2022/07/18 10:59:39;;;;;;;6.47;4.03;;;28.20;49.30;;;;;;5033235;28;20895;-45
2022/07/18 11:02:08;;;;;;;4.23;3.30;;;28.20;50.00;;;;;;5045649;28;20841;-45
2022/07/18 11:04:40;;;;;;;4.60;2.90;;;28.20;49.70;;;;;;5038986;28;20471;-45
2022/07/18 11:07:11;;;;;;;5.73;3.53;;;28.20;49.40;;;;;;5053869;28;20482;-46
2022/07/18 11:09:43;;;;;;;5.57;3.37;;;28.10;49.10;;;;;;5041610;28;20521;-46
2022/07/18 11:12:34;;;;;;;5.00;3.43;;;28.30;49.10;;;;;;5034054;28;20441;-46
2022/07/18 11:15:11;;;;;;;5.53;3.40;;;28.30;48.80;;;;;;5034201;28;21000;-44
2022/07/18 11:17:59;;;;;;;9.23;3.20;;;28.30;48.50;;;;;;5048699;28;20508;-46
2022/07/18 11:20:35;;;;;;;5.40;4.03;;;28.20;48.50;;;;;;5040394;28;20485;-46
2022/07/18 11:23:04;;;;;;;6.93;3.60;;;28.30;49.00;;;;;;5034141;28;20551;-44
2022/07/18 11:25:31;;;;;;;5.13;3.67;;;28.10;49.20;;;;;;5039644;28;20442;-44
2022/07/18 11:27:58;;;;;;;5.00;3.00;;;28.10;49.00;;;;;;5034054;28;20645;-46
2022/07/18 11:30:26;;;;;;;6.43;3.70;;;28.10;49.10;;;;;;5032466;28;20465;-45
2022/07/18 11:32:53;;;;;;;7.73;3.80;;;28.10;49.20;;;;;;5039285;28;20779;-43
2022/07/18 11:35:25;;;;;;;5.83;3.70;;;28.00;49.10;;;;;;5045724;28;20448;-44
2022/07/18 11:37:53;;;;;;;4.20;3.80;;;28.00;48.90;;;;;;5052640;28;20453;-45
2022/07/18 11:40:20;;;;;;;4.30;3.80;;;27.90;48.90;;;;;;5052786;28;20504;-45
2022/07/18 11:42:47;;;;;;;4.23;3.10;;;27.90;49.10;;;;;;5038674;28;20530;-45
2022/07/18 11:45:16;;;;;;;4.40;3.30;;;27.90;48.90;;;;;;5033264;28;20443;-46
2022/07/18 11:47:51;;;;;;;5.30;3.80;;;28.00;48.70;;;;;;5033010;28;20479;-45
2022/07/18 11:50:18;;;;;;;6.03;3.37;;;28.10;48.80;;;;;;5044888;28;20467;-45
2022/07/18 11:52:46;;;;;;;6.37;4.37;;;28.10;48.80;;;;;;5053271;28;20807;-45
2022/07/18 11:55:14;;;;;;;5.57;4.10;;;28.10;48.70;;;;;;5052676;28;20434;-45
2022/07/18 11:57:40;;;;;;;3.47;3.13;;;28.20;48.30;;;;;;5052607;28;20438;-46
2022/07/18 12:00:20;;;;;;;6.40;3.87;;;28.20;48.20;;;;;;5036217;28;20550;-45
2022/07/18 12:02:46;;;;;;;3.87;3.23;;;28.10;48.00;;;;;;5033031;28;20504;-45
2022/07/18 12:05:13;;;;;;;5.67;3.50;;;28.10;48.10;;;;;;5033489;28;20446;-44
2022/07/18 12:07:40;;;;;;;5.70;3.47;;;28.10;48.30;;;;;;5033589;28;20490;-44
2022/07/18 12:10:18;;;;;;;4.53;4.13;;;28.10;48.20;;;;;;5049346;28;20461;-44
2022/07/18 12:12:44;;;;;;;5.90;3.60;;;28.10;48.10;;;;;;5052138;28;20438;-46
2022/07/18 12:15:12;;;;;;;4.77;3.60;;;28.10;48.30;;;;;;5047639;28;20880;-46
2022/07/18 12:17:45;;;;;;;7.20;4.30;;;28.20;48.10;;;;;;5032372;28;20443;-45
2022/07/18 12:20:13;;;;;;;7.57;3.27;;;28.30;47.80;;;;;;5032016;28;20513;-45
2022/07/18 12:23:04;;;;;;;7.57;3.80;;;28.40;47.60;;;;;;5032271;28;20443;-47
2022/07/18 12:26:00;;;;;;;5.47;3.50;;;28.60;47.00;;;;;;5012693;28;20906;-46
2022/07/18 12:28:28;;;;;;;6.43;4.10;;;28.80;47.20;;;;;;5013010;28;20447;-44
2022/07/18 12:30:55;;;;;;;4.83;3.77;;;28.70;47.20;;;;;;5013006;28;20558;-46
2022/07/18 12:33:22;;;;;;;7.43;4.90;;;28.80;47.10;;;;;;5021886;28;20445;-45
2022/07/18 12:35:56;;;;;;;6.03;4.10;;;28.90;47.20;;;;;;5032386;28;20936;-45
2022/07/18 12:38:23;;;;;;;4.03;3.63;;;29.10;46.40;;;;;;5032256;28;20467;-45
2022/07/18 12:40:52;;;;;;;6.60;4.40;;;29.10;46.40;;;;;;5032240;28;20466;-45
2022/07/18 12:43:27;;;;;;;5.60;4.47;;;29.20;46.50;;;;;;5030750;28;20548;-45
2022/07/18 12:45:54;;;;;;;5.57;4.77;;;29.30;46.50;;;;;;5032243;28;20525;-45
2022/07/18 12:48:21;;;;;;;6.13;4.20;;;29.30;46.30;;;;;;5032294;28;20956;-45
2022/07/18 12:50:57;;;;;;;8.63;4.60;;;29.40;46.10;;;;;;5032304;28;20459;-45
2022/07/18 12:53:23;;;;;;;4.47;4.00;;;29.50;45.70;;;;;;5047012;28;20442;-45
2022/07/18 12:55:50;;;;;;;6.70;3.70;;;29.60;45.80;;;;;;5052146;28;20435;-46
2022/07/18 12:58:17;;;;;;;7.23;4.33;;;29.60;45.80;;;;;;5052941;28;20430;-47
2022/07/18 13:00:47;;;;;;;10.05;4.30;;;29.60;45.60;;;;;;5051844;28;20447;-45